Time;durP1;ratioP1;P1;durP2;ratioP2;P2;SDS_P1;SDS_P2;PMS_P1;PMS_P2;Temp;Humidity;BMP_temperature;BMP_pressure;BME280_temperature;BME280_humidity;BME280_pressure;Samples;Min_cycle;Max_cycle;Signal;HPM_P1;HPM_P2
2023/06/08 00:00:12;;;;;;;9.63;4.40;;;;;;;;;;5097740;28;20579;-74
2023/06/08 00:02:39;;;;;;;5.37;4.00;;;;;;;;;;5096869;28;20567;-74
2023/06/08 00:05:08;;;;;;;29.25;15.50;;;;;;;;;;5097519;28;20229;-73
2023/06/08 00:07:36;;;;;;;5.85;5.28;;;;;;;;;;5094922;28;20558;-73
2023/06/08 00:10:04;;;;;;;5.77;5.03;;;;;;;;;;5110788;28;20215;-73
2023/06/08 00:12:33;;;;;;;17.43;10.63;;;;;;;;;;5107687;28;20215;-73
2023/06/08 00:15:00;;;;;;;17.23;10.90;;;;;;;;;;5110897;28;20246;-74
2023/06/08 00:17:28;;;;;;;7.87;5.07;;;;;;;;;;5097111;28;20253;-73
2023/06/08 00:19:56;;;;;;;5.50;4.90;;;;;;;;;;5099433;28;20216;-73
2023/06/08 00:22:24;;;;;;;6.70;4.93;;;;;;;;;;5089919;28;20201;-73
2023/06/08 00:24:51;;;;;;;5.50;4.87;;;;;;;;;;5090197;28;20586;-74
2023/06/08 00:27:19;;;;;;;5.10;4.37;;;;;;;;;;5094041;28;20610;-74
2023/06/08 00:29:46;;;;;;;5.37;4.70;;;;;;;;;;5094196;28;20584;-74
2023/06/08 00:32:13;;;;;;;4.63;4.23;;;;;;;;;;5098477;28;20205;-74
2023/06/08 00:34:41;;;;;;;5.47;4.70;;;;;;;;;;5105813;28;20220;-73
2023/06/08 00:37:08;;;;;;;5.23;4.70;;;;;;;;;;5092677;28;20225;-71
2023/06/08 00:39:36;;;;;;;5.17;4.63;;;;;;;;;;5092027;28;20201;-73
2023/06/08 00:42:03;;;;;;;8.40;6.33;;;;;;;;;;5099858;28;20204;-72
2023/06/08 00:44:30;;;;;;;6.90;5.97;;;;;;;;;;5105024;28;20215;-74
2023/06/08 00:46:59;;;;;;;8.70;6.50;;;;;;;;;;5107023;28;20196;-74
2023/06/08 00:49:28;;;;;;;7.13;5.97;;;;;;;;;;5104735;28;20662;-74
2023/06/08 00:51:56;;;;;;;7.67;5.43;;;;;;;;;;5093758;28;20258;-74
2023/06/08 00:54:24;;;;;;;11.17;5.73;;;;;;;;;;5093376;28;20228;-73
2023/06/08 00:56:52;;;;;;;8.73;5.27;;;;;;;;;;5090957;28;20215;-73
2023/06/08 00:59:19;;;;;;;8.03;5.47;;;;;;;;;;5098023;28;20212;-73
2023/06/08 01:01:47;;;;;;;9.00;5.70;;;;;;;;;;5092627;28;20204;-73
2023/06/08 01:04:15;;;;;;;6.43;4.67;;;;;;;;;;5092679;28;20652;-73
2023/06/08 01:06:48;;;;;;;9.23;5.30;;;;;;;;;;5093604;28;20211;-73
2023/06/08 01:09:30;;;;;;;6.23;5.33;;;;;;;;;;5099327;28;20265;-73
2023/06/08 01:12:06;;;;;;;7.20;5.80;;;;;;;;;;5113493;28;20204;-73
2023/06/08 01:14:51;;;;;;;6.73;5.10;;;;;;;;;;5104483;28;20217;-72
2023/06/08 01:17:23;;;;;;;6.23;4.93;;;;;;;;;;5091838;28;20185;-72
2023/06/08 01:20:10;;;;;;;5.70;4.97;;;;;;;;;;5105330;28;20310;-73
2023/06/08 01:23:00;;;;;;;8.30;4.50;;;;;;;;;;5088158;28;20669;-73
2023/06/08 01:25:30;;;;;;;7.20;4.93;;;;;;;;;;5113177;28;20232;-73
2023/06/08 01:28:23;;;;;;;5.30;4.60;;;;;;;;;;5097141;28;20230;-72
2023/06/08 01:30:49;;;;;;;5.10;4.60;;;;;;;;;;5112017;28;20682;-74
2023/06/08 01:33:18;;;;;;;6.20;4.37;;;;;;;;;;5106942;28;20266;-74
2023/06/08 01:35:50;;;;;;;5.07;4.67;;;;;;;;;;5093206;28;20225;-73
2023/06/08 01:38:21;;;;;;;6.07;5.10;;;;;;;;;;5099030;28;20234;-74
2023/06/08 01:40:51;;;;;;;6.43;4.93;;;;;;;;;;5101800;28;20197;-73
2023/06/08 01:43:19;;;;;;;6.93;5.60;;;;;;;;;;5097155;28;20201;-73
2023/06/08 01:45:49;;;;;;;5.63;5.13;;;;;;;;;;5097301;28;20442;-73
2023/06/08 01:48:18;;;;;;;5.43;4.93;;;;;;;;;;5102027;28;20208;-71
2023/06/08 01:50:45;;;;;;;7.17;5.07;;;;;;;;;;5088545;28;20223;-73
2023/06/08 01:53:13;;;;;;;6.87;5.50;;;;;;;;;;5089707;28;20204;-74
2023/06/08 01:55:40;;;;;;;5.50;4.57;;;;;;;;;;5099721;28;20224;-74
2023/06/08 01:58:07;;;;;;;5.07;4.60;;;;;;;;;;5104109;28;20283;-74
2023/06/08 02:00:35;;;;;;;5.47;4.97;;;;;;;;;;5090739;28;20228;-74
2023/06/08 02:03:02;;;;;;;5.67;5.10;;;;;;;;;;5103405;28;20241;-74
2023/06/08 02:05:29;;;;;;;7.83;4.80;;;;;;;;;;5104629;28;20234;-73
2023/06/08 02:07:57;;;;;;;5.13;4.70;;;;;;;;;;5090241;28;20590;-74
2023/06/08 02:10:24;;;;;;;4.87;4.47;;;;;;;;;;5089637;28;20290;-74
2023/06/08 02:12:52;;;;;;;6.80;5.10;;;;;;;;;;5101953;28;20655;-73
2023/06/08 02:15:20;;;;;;;5.77;5.20;;;;;;;;;;5096824;28;20216;-74
2023/06/08 02:17:47;;;;;;;6.67;4.50;;;;;;;;;;5107479;28;20860;-74
2023/06/08 02:20:15;;;;;;;6.43;4.80;;;;;;;;;;5093239;28;20630;-74
2023/06/08 02:22:42;;;;;;;5.10;4.60;;;;;;;;;;5089404;28;20219;-74
2023/06/08 02:25:10;;;;;;;5.93;4.97;;;;;;;;;;5093823;28;20220;-73
2023/06/08 02:27:37;;;;;;;5.87;4.90;;;;;;;;;;5080951;28;20213;-73
2023/06/08 02:30:06;;;;;;;5.40;4.83;;;;;;;;;;5098221;28;20224;-74
2023/06/08 02:32:34;;;;;;;5.73;4.80;;;;;;;;;;5099753;28;20196;-73
2023/06/08 02:35:02;;;;;;;5.70;5.20;;;;;;;;;;5097070;28;20313;-74
2023/06/08 02:37:30;;;;;;;7.00;4.70;;;;;;;;;;5105756;28;20277;-74
2023/06/08 02:39:58;;;;;;;5.50;4.47;;;;;;;;;;5105635;28;20584;-74
2023/06/08 02:42:25;;;;;;;4.57;4.17;;;;;;;;;;5100212;28;20204;-74
2023/06/08 02:44:52;;;;;;;5.47;4.83;;;;;;;;;;5103601;28;20219;-74
2023/06/08 02:47:19;;;;;;;5.00;4.60;;;;;;;;;;5101653;28;20209;-73
2023/06/08 02:49:47;;;;;;;5.13;4.73;;;;;;;;;;5089515;28;20246;-73
2023/06/08 02:52:14;;;;;;;5.27;4.77;;;;;;;;;;5095301;28;20249;-74
2023/06/08 02:54:41;;;;;;;5.50;5.00;;;;;;;;;;5087725;28;20228;-73
2023/06/08 02:57:09;;;;;;;5.53;4.33;;;;;;;;;;5093378;28;20193;-73
2023/06/08 02:59:37;;;;;;;4.80;4.30;;;;;;;;;;5096661;28;20196;-73
2023/06/08 03:02:04;;;;;;;6.33;4.90;;;;;;;;;;5079119;28;20255;-73
2023/06/08 03:04:32;;;;;;;4.97;4.47;;;;;;;;;;5069820;28;20627;-74
2023/06/08 03:07:01;;;;;;;6.70;4.73;;;;;;;;;;5093642;28;20187;-74
2023/06/08 03:09:29;;;;;;;5.20;4.77;;;;;;;;;;5088133;28;20200;-74
2023/06/08 03:11:57;;;;;;;5.27;4.73;;;;;;;;;;5097740;28;20250;-74
2023/06/08 03:14:28;;;;;;;5.57;5.07;;;;;;;;;;5090757;28;20266;-74
2023/06/08 03:17:03;;;;;;;5.50;4.80;;;;;;;;;;5090699;28;20642;-75
2023/06/08 03:19:30;;;;;;;5.40;4.90;;;;;;;;;;5091791;28;20260;-74
2023/06/08 03:22:02;;;;;;;6.00;5.43;;;;;;;;;;5086232;28;20200;-74
2023/06/08 03:24:31;;;;;;;5.90;5.10;;;;;;;;;;5097096;28;20227;-74
2023/06/08 03:26:58;;;;;;;5.17;4.77;;;;;;;;;;5100151;28;20243;-73
2023/06/08 03:29:26;;;;;;;5.20;4.70;;;;;;;;;;5095148;28;20212;-74
2023/06/08 03:31:54;;;;;;;5.23;4.77;;;;;;;;;;5089337;28;20207;-75
2023/06/08 03:34:25;;;;;;;5.53;4.80;;;;;;;;;;5100839;28;20223;-74
2023/06/08 03:36:53;;;;;;;5.83;5.23;;;;;;;;;;5093969;28;20599;-73
2023/06/08 03:39:21;;;;;;;5.17;4.67;;;;;;;;;;5103329;28;20203;-75
2023/06/08 03:41:49;;;;;;;8.00;5.93;;;;;;;;;;5101045;28;20287;-74
2023/06/08 03:44:16;;;;;;;4.90;4.40;;;;;;;;;;5107717;28;20697;-75
2023/06/08 03:46:44;;;;;;;4.70;4.30;;;;;;;;;;5096269;28;20200;-73
2023/06/08 03:49:11;;;;;;;5.00;4.60;;;;;;;;;;5103799;28;20295;-74
2023/06/08 03:51:39;;;;;;;7.50;4.67;;;;;;;;;;5099312;28;20220;-73
2023/06/08 03:54:07;;;;;;;5.13;4.40;;;;;;;;;;5087932;28;20204;-74
2023/06/08 03:56:34;;;;;;;4.40;4.10;;;;;;;;;;5091763;28;20638;-73
2023/06/08 03:59:01;;;;;;;6.93;4.57;;;;;;;;;;5098937;28;20208;-71
2023/06/08 04:01:30;;;;;;;4.43;4.03;;;;;;;;;;5074723;28;20211;-75
2023/06/08 04:03:57;;;;;;;4.47;4.07;;;;;;;;;;5096126;28;20773;-73
2023/06/08 04:06:31;;;;;;;4.50;4.20;;;;;;;;;;5107537;28;20218;-71
2023/06/08 04:08:58;;;;;;;4.70;4.30;;;;;;;;;;5097839;28;20231;-74
2023/06/08 04:11:26;;;;;;;5.10;4.50;;;;;;;;;;5094225;28;20231;-74
2023/06/08 04:13:53;;;;;;;5.77;5.17;;;;;;;;;;5088729;28;20669;-72
2023/06/08 04:16:21;;;;;;;6.60;5.07;;;;;;;;;;5105676;28;20622;-73
2023/06/08 04:18:48;;;;;;;6.63;5.80;;;;;;;;;;5090534;28;20219;-72
2023/06/08 04:21:16;;;;;;;5.77;4.97;;;;;;;;;;5093255;28;20189;-73
2023/06/08 04:23:46;;;;;;;5.73;4.63;;;;;;;;;;5102068;28;20196;-73
2023/06/08 04:26:15;;;;;;;5.30;4.80;;;;;;;;;;5092818;28;20227;-75
2023/06/08 04:28:44;;;;;;;5.70;5.20;;;;;;;;;;5099212;28;20207;-74
2023/06/08 04:31:11;;;;;;;5.03;4.53;;;;;;;;;;5094818;28;20228;-74
2023/06/08 04:33:38;;;;;;;5.90;5.27;;;;;;;;;;5097745;28;20238;-74
2023/06/08 04:36:06;;;;;;;5.33;4.63;;;;;;;;;;5097804;28;20717;-73
2023/06/08 04:38:33;;;;;;;5.43;4.93;;;;;;;;;;5098272;28;20258;-73
2023/06/08 04:41:01;;;;;;;5.60;5.10;;;;;;;;;;5090623;28;20205;-73
2023/06/08 04:43:32;;;;;;;5.83;5.30;;;;;;;;;;5107964;28;20236;-72
2023/06/08 04:45:59;;;;;;;4.97;4.57;;;;;;;;;;5090623;28;20693;-75
2023/06/08 04:48:27;;;;;;;4.90;4.50;;;;;;;;;;5098994;28;20204;-72
2023/06/08 04:51:04;;;;;;;4.77;4.30;;;;;;;;;;5105105;28;20224;-74
2023/06/08 04:53:35;;;;;;;4.33;4.03;;;;;;;;;;5101432;28;20192;-71
2023/06/08 04:56:02;;;;;;;5.80;5.03;;;;;;;;;;5101359;28;20770;-72
2023/06/08 04:58:31;;;;;;;8.60;5.70;;;;;;;;;;5102912;28;20204;-74
2023/06/08 05:00:58;;;;;;;9.03;7.87;;;;;;;;;;5099969;28;20839;-74
2023/06/08 05:03:26;;;;;;;8.27;7.03;;;;;;;;;;5100831;28;20235;-75
2023/06/08 05:05:54;;;;;;;5.07;4.63;;;;;;;;;;5105217;28;20224;-73
2023/06/08 05:08:22;;;;;;;5.40;4.90;;;;;;;;;;5091240;28;20201;-73
2023/06/08 05:10:49;;;;;;;9.60;6.63;;;;;;;;;;5104642;28;20349;-72
2023/06/08 05:13:17;;;;;;;8.80;6.93;;;;;;;;;;5097266;28;20200;-72
2023/06/08 05:15:44;;;;;;;11.87;7.60;;;;;;;;;;5097706;28;20216;-72
2023/06/08 05:18:12;;;;;;;9.17;6.47;;;;;;;;;;5096810;28;20674;-73
2023/06/08 05:20:42;;;;;;;6.07;5.47;;;;;;;;;;5098064;28;20532;-74
2023/06/08 05:23:09;;;;;;;4.67;4.27;;;;;;;;;;5089280;28;20204;-73
2023/06/08 05:25:37;;;;;;;4.40;4.00;;;;;;;;;;5100232;28;20661;-73
2023/06/08 05:28:04;;;;;;;4.22;3.60;;;;;;;;;;5099331;28;20206;-74
2023/06/08 05:30:32;;;;;;;4.20;3.88;;;;;;;;;;5097252;28;20228;-74
2023/06/08 05:33:00;;;;;;;4.60;3.72;;;;;;;;;;5101089;28;20289;-74
2023/06/08 05:35:28;;;;;;;4.13;3.72;;;;;;;;;;5083916;28;20706;-73
2023/06/08 05:37:55;;;;;;;4.68;3.42;;;;;;;;;;5104987;28;20235;-74
2023/06/08 05:40:24;;;;;;;3.83;3.53;;;;;;;;;;5086184;28;20212;-73
2023/06/08 05:42:51;;;;;;;10.55;7.78;;;;;;;;;;5102970;28;20207;-74
2023/06/08 05:45:18;;;;;;;22.15;14.30;;;;;;;;;;5101154;28;20235;-73
2023/06/08 05:47:46;;;;;;;15.27;11.30;;;;;;;;;;5103381;28;20272;-75
2023/06/08 05:50:13;;;;;;;5.35;4.85;;;;;;;;;;5097688;28;20200;-75
2023/06/08 05:52:40;;;;;;;8.32;5.68;;;;;;;;;;5104654;28;20243;-74
2023/06/08 05:55:08;;;;;;;6.75;5.07;;;;;;;;;;5103504;28;20231;-74
2023/06/08 05:57:39;;;;;;;4.78;4.32;;;;;;;;;;5100560;28;20706;-74
2023/06/08 06:00:10;;;;;;;4.50;4.10;;;;;;;;;;5102321;28;20249;-75
2023/06/08 06:02:38;;;;;;;3.60;3.30;;;;;;;;;;5097627;28;20204;-74
2023/06/08 06:05:08;;;;;;;3.75;3.45;;;;;;;;;;5105379;28;20255;-74
2023/06/08 06:07:35;;;;;;;4.85;3.50;;;;;;;;;;5097510;28;20218;-74
2023/06/08 06:10:03;;;;;;;3.63;3.33;;;;;;;;;;5104006;28;20269;-74
2023/06/08 06:12:32;;;;;;;4.53;4.13;;;;;;;;;;5095414;28;20224;-74
2023/06/08 06:14:59;;;;;;;4.10;3.70;;;;;;;;;;5094454;28;20737;-75
2023/06/08 06:17:26;;;;;;;4.40;3.97;;;;;;;;;;5089429;28;21487;-75
2023/06/08 06:19:54;;;;;;;4.05;3.75;;;;;;;;;;5083706;28;20628;-75
2023/06/08 06:22:22;;;;;;;5.15;3.78;;;;;;;;;;5091030;28;20697;-75
2023/06/08 06:24:49;;;;;;;4.03;3.60;;;;;;;;;;5091655;28;20251;-75
2023/06/08 06:27:16;;;;;;;4.00;3.70;;;;;;;;;;5094140;28;20208;-75
2023/06/08 06:29:43;;;;;;;4.40;4.10;;;;;;;;;;5091383;28;20215;-76
2023/06/08 06:32:11;;;;;;;5.10;4.60;;;;;;;;;;5090305;28;20236;-75
2023/06/08 06:34:38;;;;;;;4.07;3.78;;;;;;;;;;5088731;28;20220;-76
2023/06/08 06:37:06;;;;;;;3.47;3.28;;;;;;;;;;5087744;28;20193;-76
2023/06/08 06:39:34;;;;;;;6.18;5.57;;;;;;;;;;5097541;28;20654;-75
2023/06/08 06:42:01;;;;;;;3.80;3.50;;;;;;;;;;5092552;28;20213;-76
2023/06/08 06:44:29;;;;;;;3.80;3.50;;;;;;;;;;5094463;28;20224;-74
2023/06/08 06:46:56;;;;;;;4.10;3.78;;;;;;;;;;5104332;28;20224;-75
2023/06/08 06:49:27;;;;;;;3.45;3.15;;;;;;;;;;5078365;28;20207;-75
2023/06/08 06:51:56;;;;;;;4.05;3.60;;;;;;;;;;5076763;28;20224;-75
2023/06/08 06:54:24;;;;;;;5.45;3.55;;;;;;;;;;5077134;28;20287;-76
2023/06/08 06:56:51;;;;;;;3.83;3.10;;;;;;;;;;5098062;28;20608;-75
2023/06/08 06:59:20;;;;;;;4.10;3.80;;;;;;;;;;5093681;28;20209;-76
2023/06/08 07:01:47;;;;;;;6.88;3.58;;;;;;;;;;5093742;28;20296;-76
2023/06/08 07:04:15;;;;;;;3.38;3.17;;;;;;;;;;5095347;28;20296;-76
2023/06/08 07:06:43;;;;;;;4.53;3.22;;;;;;;;;;5096174;28;20677;-76
2023/06/08 07:09:11;;;;;;;4.05;3.42;;;;;;;;;;5081979;28;20579;-76
2023/06/08 07:11:38;;;;;;;4.00;3.15;;;;;;;;;;5094304;28;20221;-75
2023/06/08 07:14:06;;;;;;;4.45;2.90;;;;;;;;;;5082475;28;20261;-75
2023/06/08 07:16:33;;;;;;;3.47;3.17;;;;;;;;;;5088822;28;20212;-75
2023/06/08 07:19:01;;;;;;;3.88;3.13;;;;;;;;;;5090682;28;20713;-76
2023/06/08 07:21:30;;;;;;;3.70;3.40;;;;;;;;;;5084560;28;20223;-75
2023/06/08 07:24:06;;;;;;;3.50;3.20;;;;;;;;;;5084562;28;20227;-75
2023/06/08 07:26:53;;;;;;;4.07;3.15;;;;;;;;;;5077978;28;20311;-76
2023/06/08 07:29:22;;;;;;;4.30;3.35;;;;;;;;;;5070036;28;20208;-76
2023/06/08 07:31:51;;;;;;;4.45;3.50;;;;;;;;;;5078821;28;20227;-75
2023/06/08 07:34:18;;;;;;;3.67;3.38;;;;;;;;;;5074748;28;20607;-75
2023/06/08 07:36:45;;;;;;;3.40;3.13;;;;;;;;;;5080362;28;20258;-76
2023/06/08 07:39:13;;;;;;;4.07;3.33;;;;;;;;;;5077060;28;20209;-76
2023/06/08 07:41:40;;;;;;;3.53;3.25;;;;;;;;;;5079652;28;20288;-76
2023/06/08 07:44:07;;;;;;;3.35;3.05;;;;;;;;;;5084811;28;20632;-75
2023/06/08 07:46:35;;;;;;;3.78;3.20;;;;;;;;;;5058632;28;20195;-76
2023/06/08 07:49:02;;;;;;;3.17;2.75;;;;;;;;;;5058037;28;20312;-75
2023/06/08 07:51:30;;;;;;;3.53;3.17;;;;;;;;;;5082769;28;20231;-76
2023/06/08 07:53:57;;;;;;;3.25;2.95;;;;;;;;;;5078552;28;20614;-76
2023/06/08 07:56:24;;;;;;;3.63;3.25;;;;;;;;;;5064920;28;20208;-75
2023/06/08 07:58:51;;;;;;;3.40;3.10;;;;;;;;;;5072697;28;20276;-76
2023/06/08 08:01:19;;;;;;;4.13;3.15;;;;;;;;;;5061363;28;20204;-76
2023/06/08 08:03:46;;;;;;;3.47;3.17;;;;;;;;;;5054084;28;20207;-75
2023/06/08 08:06:14;;;;;;;4.68;3.30;;;;;;;;;;5065932;28;20228;-75
2023/06/08 08:08:41;;;;;;;3.42;3.13;;;;;;;;;;5090724;28;20709;-76
2023/06/08 08:11:09;;;;;;;3.53;3.13;;;;;;;;;;5053477;28;20235;-76
2023/06/08 08:13:37;;;;;;;5.25;3.50;;;;;;;;;;5073538;28;20205;-76
2023/06/08 08:16:05;;;;;;;4.15;3.00;;;;;;;;;;5075794;28;21029;-75
2023/06/08 08:18:33;;;;;;;3.35;3.05;;;;;;;;;;5084381;28;20201;-76
2023/06/08 08:21:00;;;;;;;3.70;3.40;;;;;;;;;;5069309;28;20208;-76
2023/06/08 08:23:28;;;;;;;3.85;3.53;;;;;;;;;;5082475;28;20211;-76
2023/06/08 08:25:55;;;;;;;3.90;3.40;;;;;;;;;;5084426;28;20780;-76
2023/06/08 08:28:23;;;;;;;3.95;3.30;;;;;;;;;;5081956;28;20193;-75
2023/06/08 08:30:50;;;;;;;3.67;3.38;;;;;;;;;;5087546;28;20205;-75
2023/06/08 08:33:17;;;;;;;3.40;3.10;;;;;;;;;;5086531;28;20312;-76
2023/06/08 08:35:45;;;;;;;3.85;3.28;;;;;;;;;;5092027;28;20217;-75
2023/06/08 08:38:12;;;;;;;5.10;3.45;;;;;;;;;;5095809;28;20209;-75
2023/06/08 08:40:43;;;;;;;3.40;3.20;;;;;;;;;;5094879;28;20204;-75
2023/06/08 08:43:18;;;;;;;3.70;3.40;;;;;;;;;;5071764;28;20269;-74
2023/06/08 08:45:46;;;;;;;4.82;3.70;;;;;;;;;;5096012;28;20655;-73
2023/06/08 08:48:17;;;;;;;4.13;3.72;;;;;;;;;;5090305;28;20205;-74
2023/06/08 08:50:49;;;;;;;4.75;3.45;;;;;;;;;;5091840;28;20204;-75
2023/06/08 08:53:17;;;;;;;3.70;3.40;;;;;;;;;;5089575;28;20245;-74
2023/06/08 08:55:48;;;;;;;3.70;3.40;;;;;;;;;;5096001;28;20228;-75
2023/06/08 08:58:18;;;;;;;3.35;3.05;;;;;;;;;;5100134;28;20211;-73
2023/06/08 09:00:49;;;;;;;3.70;3.40;;;;;;;;;;5096614;28;20200;-74
2023/06/08 09:03:17;;;;;;;3.80;3.50;;;;;;;;;;5067529;28;20208;-72
2023/06/08 09:05:45;;;;;;;3.40;3.15;;;;;;;;;;5092766;28;20965;-74
2023/06/08 09:08:14;;;;;;;3.60;3.30;;;;;;;;;;5084203;28;20218;-73
2023/06/08 09:10:41;;;;;;;3.92;3.63;;;;;;;;;;5093826;28;20208;-74
2023/06/08 09:13:20;;;;;;;3.90;3.55;;;;;;;;;;5090787;28;20230;-74
2023/06/08 09:15:47;;;;;;;4.03;3.30;;;;;;;;;;5087218;28;20227;-74
2023/06/08 09:18:16;;;;;;;3.47;3.28;;;;;;;;;;5073467;28;20681;-74
2023/06/08 09:20:43;;;;;;;3.88;3.45;;;;;;;;;;5098973;28;20205;-74
2023/06/08 09:23:22;;;;;;;3.53;3.20;;;;;;;;;;5091770;28;20736;-74
2023/06/08 09:25:52;;;;;;;3.90;3.60;;;;;;;;;;5086284;28;21296;-74
2023/06/08 09:28:29;;;;;;;5.00;3.50;;;;;;;;;;5084126;28;20298;-75
2023/06/08 09:31:00;;;;;;;3.95;3.53;;;;;;;;;;5060423;28;20204;-74
2023/06/08 09:33:33;;;;;;;3.33;3.03;;;;;;;;;;5076730;28;20193;-74
2023/06/08 09:36:01;;;;;;;4.50;3.72;;;;;;;;;;5095945;28;20594;-73
2023/06/08 09:38:30;;;;;;;3.85;3.55;;;;;;;;;;5100080;28;20201;-74
2023/06/08 09:41:16;;;;;;;4.82;3.58;;;;;;;;;;5090403;28;20232;-74
2023/06/08 09:43:45;;;;;;;4.07;3.67;;;;;;;;;;5088358;28;20222;-74
2023/06/08 09:46:16;;;;;;;3.83;3.53;;;;;;;;;;5074636;28;20224;-74
2023/06/08 09:48:53;;;;;;;4.03;3.72;;;;;;;;;;5083732;28;20253;-75
2023/06/08 09:51:22;;;;;;;4.70;4.30;;;;;;;;;;5097962;28;20212;-74
2023/06/08 09:53:54;;;;;;;5.32;4.80;;;;;;;;;;5075343;28;20208;-74
2023/06/08 09:56:25;;;;;;;6.82;4.95;;;;;;;;;;5081027;28;20208;-74
2023/06/08 09:58:56;;;;;;;4.00;3.70;;;;;;;;;;5090461;28;21627;-75
2023/06/08 10:01:33;;;;;;;5.20;4.70;;;;;;;;;;5091715;28;20522;-75
2023/06/08 10:04:07;;;;;;;4.70;4.28;;;;;;;;;;5088511;28;20208;-72
2023/06/08 10:06:35;;;;;;;4.93;4.32;;;;;;;;;;5067770;28;20197;-76
2023/06/08 10:09:06;;;;;;;4.82;4.32;;;;;;;;;;5088849;28;20288;-74
2023/06/08 10:11:34;;;;;;;4.22;3.83;;;;;;;;;;5088374;28;20212;-73
2023/06/08 10:14:01;;;;;;;5.82;5.20;;;;;;;;;;5099854;28;20704;-73
2023/06/08 10:16:29;;;;;;;4.30;3.90;;;;;;;;;;5088892;28;20200;-74
2023/06/08 10:18:57;;;;;;;4.25;3.85;;;;;;;;;;5093449;28;20219;-75
2023/06/08 10:21:26;;;;;;;4.28;3.88;;;;;;;;;;5094232;28;20196;-75
2023/06/08 10:23:56;;;;;;;4.10;3.70;;;;;;;;;;5080513;27;20204;-74
2023/06/08 10:26:32;;;;;;;4.80;3.58;;;;;;;;;;5085738;28;20689;-75
2023/06/08 10:29:08;;;;;;;4.57;4.18;;;;;;;;;;5077260;28;20337;-75
2023/06/08 10:31:49;;;;;;;4.82;3.38;;;;;;;;;;5095767;28;20223;-73
2023/06/08 10:34:17;;;;;;;3.65;3.35;;;;;;;;;;5099685;28;20274;-75
2023/06/08 10:36:45;;;;;;;3.88;3.55;;;;;;;;;;5093775;28;20658;-75
2023/06/08 10:39:14;;;;;;;5.88;4.30;;;;;;;;;;5071209;28;20193;-73
2023/06/08 10:41:42;;;;;;;4.03;3.72;;;;;;;;;;5087776;28;20208;-74
2023/06/08 10:44:26;;;;;;;5.32;4.93;;;;;;;;;;5079894;28;20212;-75
2023/06/08 10:46:59;;;;;;;5.63;5.13;;;;;;;;;;5087088;28;20201;-74
2023/06/08 10:49:31;;;;;;;4.93;4.43;;;;;;;;;;5083771;28;20201;-75
2023/06/08 10:51:59;;;;;;;6.32;4.72;;;;;;;;;;5077039;28;20775;-76
2023/06/08 10:54:26;;;;;;;5.10;4.70;;;;;;;;;;5086053;28;20281;-74
2023/06/08 10:56:55;;;;;;;9.45;5.68;;;;;;;;;;5061372;28;20208;-74
2023/06/08 10:59:42;;;;;;;5.63;4.90;;;;;;;;;;5081555;28;20486;-76
2023/06/08 11:02:09;;;;;;;5.72;5.13;;;;;;;;;;5095963;28;20227;-75
2023/06/08 11:04:37;;;;;;;4.93;4.53;;;;;;;;;;5090458;28;20314;-75
2023/06/08 11:07:17;;;;;;;7.43;5.50;;;;;;;;;;5093888;28;20592;-76
2023/06/08 11:09:47;;;;;;;6.88;5.53;;;;;;;;;;5082389;28;20771;-74
2023/06/08 11:12:14;;;;;;;5.70;4.88;;;;;;;;;;5085981;28;20306;-74
2023/06/08 11:14:41;;;;;;;5.20;4.70;;;;;;;;;;5077050;28;20693;-74
2023/06/08 11:17:09;;;;;;;6.03;5.30;;;;;;;;;;5085252;27;21062;-74
2023/06/08 11:19:36;;;;;;;4.95;4.55;;;;;;;;;;5084214;28;20208;-75
2023/06/08 11:22:03;;;;;;;6.78;4.95;;;;;;;;;;5087050;28;20203;-75
2023/06/08 11:24:31;;;;;;;7.43;5.30;;;;;;;;;;5080718;28;20256;-74
2023/06/08 11:26:59;;;;;;;6.47;5.55;;;;;;;;;;5084524;28;20266;-73
2023/06/08 11:29:31;;;;;;;8.02;6.30;;;;;;;;;;5068493;28;20208;-75
2023/06/08 11:32:12;;;;;;;6.78;5.13;;;;;;;;;;5081486;28;20956;-76
2023/06/08 11:34:51;;;;;;;6.10;5.50;;;;;;;;;;5087119;28;20211;-74
2023/06/08 11:37:18;;;;;;;5.60;4.95;;;;;;;;;;5071930;28;20878;-75
2023/06/08 11:39:49;;;;;;;5.10;4.60;;;;;;;;;;5056552;28;20727;-75
2023/06/08 11:42:17;;;;;;;5.25;4.50;;;;;;;;;;5080680;28;20216;-76
2023/06/08 11:44:44;;;;;;;5.00;4.38;;;;;;;;;;5051649;28;20231;-75
2023/06/08 11:47:11;;;;;;;6.20;4.65;;;;;;;;;;5074357;28;20212;-74
2023/06/08 11:49:54;;;;;;;5.70;4.38;;;;;;;;;;5062380;28;20257;-74
2023/06/08 11:52:22;;;;;;;4.68;4.28;;;;;;;;;;5050639;28;20232;-75
2023/06/08 11:54:57;;;;;;;6.45;4.65;;;;;;;;;;5074576;28;20224;-76
2023/06/08 11:57:45;;;;;;;6.40;4.57;;;;;;;;;;5076760;28;20203;-73
2023/06/08 12:00:22;;;;;;;4.78;4.38;;;;;;;;;;5061632;28;20232;-75
2023/06/08 12:02:51;;;;;;;6.07;4.70;;;;;;;;;;5078112;28;20229;-75
2023/06/08 12:05:29;;;;;;;4.68;4.15;;;;;;;;;;5081981;28;20216;-73
2023/06/08 12:07:59;;;;;;;4.45;3.88;;;;;;;;;;5081394;28;20204;-74
2023/06/08 12:10:36;;;;;;;4.10;3.70;;;;;;;;;;5076378;28;20828;-74
2023/06/08 12:13:05;;;;;;;5.72;3.80;;;;;;;;;;5078758;28;20238;-75
2023/06/08 12:15:37;;;;;;;5.57;3.95;;;;;;;;;;5081464;28;20217;-76
2023/06/08 12:18:04;;;;;;;3.90;3.53;;;;;;;;;;5085514;28;20279;-76
2023/06/08 12:20:35;;;;;;;4.28;3.80;;;;;;;;;;5052516;28;20204;-75
2023/06/08 12:23:03;;;;;;;4.18;3.78;;;;;;;;;;5077648;28;20197;-75
2023/06/08 12:25:30;;;;;;;3.70;3.40;;;;;;;;;;5058908;28;20220;-75
2023/06/08 12:27:58;;;;;;;5.43;3.55;;;;;;;;;;5080410;28;20204;-76
2023/06/08 12:30:26;;;;;;;3.95;3.53;;;;;;;;;;5075989;28;20239;-74
2023/06/08 12:32:53;;;;;;;3.33;3.13;;;;;;;;;;5055933;28;20449;-73
2023/06/08 12:35:21;;;;;;;3.40;3.20;;;;;;;;;;5064258;28;20906;-77
2023/06/08 12:37:49;;;;;;;3.45;3.05;;;;;;;;;;5083373;28;20209;-75
2023/06/08 12:40:18;;;;;;;3.38;3.00;;;;;;;;;;5057411;28;20208;-75
2023/06/08 12:42:51;;;;;;;3.80;3.50;;;;;;;;;;5063129;28;20197;-75
2023/06/08 12:45:22;;;;;;;4.15;3.55;;;;;;;;;;5083136;28;20227;-74
2023/06/08 12:47:49;;;;;;;3.38;3.08;;;;;;;;;;5079857;28;20337;-75
2023/06/08 12:50:19;;;;;;;3.55;3.20;;;;;;;;;;5084578;28;20232;-76
2023/06/08 12:52:47;;;;;;;3.70;3.40;;;;;;;;;;5071995;28;20342;-75
2023/06/08 12:55:14;;;;;;;4.03;3.20;;;;;;;;;;5088814;28;20234;-76
2023/06/08 12:57:41;;;;;;;3.33;3.03;;;;;;;;;;5092360;28;20212;-74
2023/06/08 13:00:10;;;;;;;3.53;3.22;;;;;;;;;;5090088;28;20201;-72
2023/06/08 13:02:37;;;;;;;3.85;2.95;;;;;;;;;;5079044;28;20545;-76
2023/06/08 13:05:04;;;;;;;3.40;3.10;;;;;;;;;;5090361;28;20224;-76
2023/06/08 13:07:32;;;;;;;2.90;2.70;;;;;;;;;;5083087;28;20332;-74
2023/06/08 13:10:00;;;;;;;3.33;2.83;;;;;;;;;;5092839;27;20212;-75
2023/06/08 13:12:41;;;;;;;2.97;2.78;;;;;;;;;;5084643;28;20465;-75
2023/06/08 13:15:22;;;;;;;2.60;2.40;;;;;;;;;;5090629;28;20227;-74
2023/06/08 13:18:06;;;;;;;2.85;2.65;;;;;;;;;;5072325;28;20538;-72
2023/06/08 13:20:34;;;;;;;3.15;2.85;;;;;;;;;;5084257;28;20287;-74
2023/06/08 13:23:02;;;;;;;2.78;2.58;;;;;;;;;;5077644;28;20265;-74
2023/06/08 13:25:30;;;;;;;3.08;2.88;;;;;;;;;;5082349;28;20244;-75
2023/06/08 13:27:57;;;;;;;2.80;2.50;;;;;;;;;;5093026;28;20207;-75
2023/06/08 13:30:24;;;;;;;3.10;2.70;;;;;;;;;;5077744;28;20204;-74
2023/06/08 13:32:59;;;;;;;3.13;2.92;;;;;;;;;;5093585;28;20220;-75
2023/06/08 13:35:27;;;;;;;4.82;2.70;;;;;;;;;;5099255;28;20881;-75
2023/06/08 13:37:55;;;;;;;3.88;2.40;;;;;;;;;;5094563;28;20215;-74
2023/06/08 13:40:23;;;;;;;2.88;2.67;;;;;;;;;;5095015;27;20212;-74
2023/06/08 13:42:51;;;;;;;3.67;3.00;;;;;;;;;;5095838;27;20207;-74
2023/06/08 13:45:20;;;;;;;2.92;2.67;;;;;;;;;;5095762;28;20343;-74
2023/06/08 13:47:48;;;;;;;2.90;2.70;;;;;;;;;;5076604;28;21570;-76
2023/06/08 13:50:16;;;;;;;2.78;2.58;;;;;;;;;;5102394;28;20248;-75
2023/06/08 13:52:43;;;;;;;3.80;3.50;;;;;;;;;;5100039;28;20235;-76
2023/06/08 13:55:10;;;;;;;3.30;3.00;;;;;;;;;;5095995;27;20255;-74
2023/06/08 13:57:38;;;;;;;3.20;2.90;;;;;;;;;;5089419;28;20295;-75
2023/06/08 14:00:06;;;;;;;3.13;2.60;;;;;;;;;;5094537;28;20306;-73
2023/06/08 14:02:34;;;;;;;5.50;3.85;;;;;;;;;;5092259;28;20299;-75
2023/06/08 14:05:03;;;;;;;3.58;3.28;;;;;;;;;;5097564;28;20224;-75
2023/06/08 14:07:31;;;;;;;3.25;3.05;;;;;;;;;;5079163;28;20228;-75
2023/06/08 14:09:59;;;;;;;3.90;3.60;;;;;;;;;;5091201;28;20201;-75
2023/06/08 14:12:27;;;;;;;3.75;3.45;;;;;;;;;;5089511;28;20200;-74
2023/06/08 14:14:54;;;;;;;4.20;3.63;;;;;;;;;;5090446;28;20673;-73
2023/06/08 14:17:22;;;;;;;3.75;3.45;;;;;;;;;;5094428;28;20966;-74
2023/06/08 14:19:50;;;;;;;3.17;2.97;;;;;;;;;;5094128;28;20285;-75
2023/06/08 14:22:17;;;;;;;5.28;4.03;;;;;;;;;;5085164;28;20208;-74
2023/06/08 14:24:45;;;;;;;3.95;3.55;;;;;;;;;;5079575;28;20252;-74
2023/06/08 14:27:14;;;;;;;3.70;3.40;;;;;;;;;;5091012;28;20205;-74
2023/06/08 14:29:41;;;;;;;4.20;3.67;;;;;;;;;;5094538;28;20653;-74
2023/06/08 14:32:08;;;;;;;4.35;3.90;;;;;;;;;;5090299;28;20542;-75
2023/06/08 14:34:36;;;;;;;3.70;3.40;;;;;;;;;;5096185;28;20661;-74
2023/06/08 14:37:10;;;;;;;3.78;3.45;;;;;;;;;;5086837;28;20241;-74
2023/06/08 14:39:38;;;;;;;3.92;3.22;;;;;;;;;;5087527;28;20870;-74
2023/06/08 14:42:09;;;;;;;3.63;3.33;;;;;;;;;;5093886;28;20200;-73
2023/06/08 14:44:36;;;;;;;4.13;3.80;;;;;;;;;;5091604;27;20298;-75
2023/06/08 14:47:04;;;;;;;3.58;3.28;;;;;;;;;;5099821;28;20231;-76
2023/06/08 14:49:35;;;;;;;3.65;3.35;;;;;;;;;;5095828;28;20212;-75
2023/06/08 14:52:04;;;;;;;3.75;3.45;;;;;;;;;;5103695;28;20253;-74
2023/06/08 14:54:31;;;;;;;3.63;3.33;;;;;;;;;;5094680;28;20273;-74